Time;durP1;ratioP1;P1;durP2;ratioP2;P2;SDS_P1;SDS_P2;PMS_P1;PMS_P2;Temp;Humidity;BMP_temperature;BMP_pressure;BME280_temperature;BME280_humidity;BME280_pressure;Samples;Min_cycle;Max_cycle;Signal;HPM_P1;HPM_P2
2024/04/17 00:01:17;;;;;;;6.00;2.95;;;7.00;99.90;;;;;;5456076;26;20003;-91
2024/04/17 00:03:43;;;;;;;3.58;2.67;;;7.00;99.90;;;;;;5455800;26;20080;-89
2024/04/17 00:06:09;;;;;;;4.45;3.67;;;7.00;99.90;;;;;;5452706;26;19995;-90
2024/04/17 00:08:34;;;;;;;5.45;2.80;;;7.00;99.90;;;;;;5448098;26;19999;-88
2024/04/17 00:11:00;;;;;;;5.65;2.33;;;6.90;99.90;;;;;;5447347;26;20011;-90
2024/04/17 00:13:26;;;;;;;4.20;2.83;;;7.00;99.90;;;;;;5444728;26;20013;-89
2024/04/17 00:15:52;;;;;;;5.97;2.80;;;7.00;99.90;;;;;;5456504;26;19994;-88
2024/04/17 00:18:18;;;;;;;3.90;2.53;;;6.90;99.90;;;;;;5455976;26;20003;-92
2024/04/17 00:20:43;;;;;;;6.88;3.80;;;6.90;99.90;;;;;;5454989;26;20003;-91
2024/04/17 00:23:09;;;;;;;4.43;3.33;;;7.10;99.90;;;;;;5442961;26;20004;-91
2024/04/17 00:25:34;;;;;;;4.88;3.63;;;7.00;99.90;;;;;;5455954;26;19999;-91
2024/04/17 00:28:00;;;;;;;6.43;3.20;;;7.00;99.90;;;;;;5454589;26;20011;-91
2024/04/17 00:30:26;;;;;;;3.97;2.58;;;7.00;99.90;;;;;;5455379;26;20476;-90
2024/04/17 00:32:51;;;;;;;3.67;2.90;;;7.00;99.90;;;;;;5469660;26;20039;-92
2024/04/17 00:35:17;;;;;;;5.57;2.67;;;7.00;99.90;;;;;;5425167;26;20007;-89
2024/04/17 00:37:44;;;;;;;3.97;2.78;;;7.00;99.90;;;;;;5420159;26;20000;-91
2024/04/17 00:40:09;;;;;;;4.35;2.90;;;7.00;99.90;;;;;;5449963;26;19999;-89
2024/04/17 00:42:35;;;;;;;3.72;2.60;;;7.10;99.90;;;;;;5452039;26;20017;-91
2024/04/17 00:45:01;;;;;;;6.28;4.32;;;7.00;99.90;;;;;;5455953;26;20003;-88
2024/04/17 00:47:27;;;;;;;4.07;3.00;;;7.00;99.90;;;;;;5453785;26;20010;-91
2024/04/17 00:49:53;;;;;;;4.05;2.53;;;6.90;99.90;;;;;;5454842;26;20006;-91
2024/04/17 00:52:19;;;;;;;5.38;4.70;;;6.90;99.90;;;;;;5422704;26;20006;-89
2024/04/17 00:54:46;;;;;;;5.10;3.85;;;6.90;99.90;;;;;;5453312;26;20007;-88
2024/04/17 00:57:14;;;;;;;5.35;3.00;;;6.90;99.90;;;;;;5449727;26;19994;-87
2024/04/17 00:59:40;;;;;;;;;;;6.80;99.90;;;;;;5451153;26;20007;-88
2024/04/17 01:02:06;;;;;;;4.28;3.00;;;6.80;99.90;;;;;;5449078;26;19932;-88
2024/04/17 01:04:32;;;;;;;5.10;2.92;;;6.80;99.90;;;;;;5396447;26;19995;-87
2024/04/17 01:06:59;;;;;;;4.18;3.45;;;6.80;99.90;;;;;;5446460;26;19995;-88
2024/04/17 01:09:24;;;;;;;4.10;2.47;;;6.80;99.90;;;;;;5450426;26;19991;-88
2024/04/17 01:11:51;;;;;;;3.85;2.65;;;6.80;99.90;;;;;;5449552;26;19995;-87
2024/04/17 01:14:17;;;;;;;4.07;3.00;;;6.80;99.90;;;;;;5432998;26;19998;-88
2024/04/17 01:16:42;;;;;;;5.18;3.05;;;6.80;99.90;;;;;;5449756;26;20382;-89
2024/04/17 01:19:10;;;;;;;4.45;2.83;;;6.80;99.90;;;;;;5449030;26;20007;-88
2024/04/17 01:21:36;;;;;;;4.93;2.55;;;6.70;99.90;;;;;;5449970;26;20464;-88
2024/04/17 01:24:02;;;;;;;8.68;4.90;;;6.80;99.90;;;;;;5448390;26;20067;-88
2024/04/17 01:26:27;;;;;;;4.40;3.28;;;6.80;99.90;;;;;;5439798;26;19996;-87
2024/04/17 01:28:53;;;;;;;4.57;2.70;;;6.70;99.90;;;;;;5431509;26;20511;-88
2024/04/17 01:31:19;;;;;;;4.05;2.70;;;6.80;99.90;;;;;;5441790;26;20006;-89
2024/04/17 01:33:45;;;;;;;5.75;2.65;;;6.80;99.90;;;;;;5430354;26;19999;-88
2024/04/17 01:36:14;;;;;;;4.47;2.50;;;6.80;99.90;;;;;;5418569;26;20087;-88
2024/04/17 01:38:40;;;;;;;5.82;4.07;;;6.80;99.90;;;;;;5448725;26;20356;-89
2024/04/17 01:41:06;;;;;;;4.57;2.83;;;6.80;99.90;;;;;;5418612;26;19999;-87
2024/04/17 01:43:32;;;;;;;4.15;2.95;;;6.80;99.90;;;;;;5445557;26;20014;-87
2024/04/17 01:45:58;;;;;;;7.45;3.53;;;6.80;99.90;;;;;;5448007;26;20485;-88
2024/04/17 01:48:23;;;;;;;6.45;4.10;;;6.80;99.90;;;;;;5447714;26;20013;-88
2024/04/17 01:50:50;;;;;;;5.68;2.75;;;6.70;99.90;;;;;;5448369;26;20491;-88
2024/04/17 01:53:16;;;;;;;5.40;3.28;;;6.70;99.90;;;;;;5448186;26;19999;-88
2024/04/17 01:55:43;;;;;;;6.10;3.83;;;6.60;99.90;;;;;;5458226;26;20099;-88
2024/04/17 01:58:09;;;;;;;5.35;3.85;;;6.60;99.90;;;;;;5426216;26;19995;-88
2024/04/17 02:00:35;;;;;;;6.95;2.90;;;6.60;99.90;;;;;;5448846;26;20013;-88
2024/04/17 02:03:02;;;;;;;6.20;4.13;;;6.50;99.90;;;;;;5448241;26;20007;-89
2024/04/17 02:05:27;;;;;;;6.30;4.15;;;6.60;99.90;;;;;;5448500;26;20005;-87
2024/04/17 02:07:53;;;;;;;5.57;3.83;;;6.60;99.90;;;;;;5448597;26;20059;-88
2024/04/17 02:10:18;;;;;;;5.82;3.95;;;6.60;99.90;;;;;;5417092;26;20071;-88
2024/04/17 02:12:44;;;;;;;7.72;4.90;;;6.60;99.90;;;;;;5447843;26;20003;-87
2024/04/17 02:15:10;;;;;;;7.90;5.63;;;6.60;99.90;;;;;;5447772;26;20074;-89
2024/04/17 02:17:35;;;;;;;6.72;4.07;;;6.60;99.90;;;;;;5448611;26;20412;-88
2024/04/17 02:20:03;;;;;;;5.90;3.72;;;6.70;99.90;;;;;;5440392;26;20007;-88
2024/04/17 02:22:29;;;;;;;7.40;4.90;;;6.70;99.90;;;;;;5447439;26;20003;-87
2024/04/17 02:24:54;;;;;;;7.28;3.60;;;6.70;99.90;;;;;;5447635;26;20108;-88
2024/04/17 02:27:20;;;;;;;6.95;3.83;;;6.60;99.90;;;;;;5447405;26;20003;-87
2024/04/17 02:29:47;;;;;;;5.55;3.75;;;6.70;99.90;;;;;;5448837;26;19995;-88
2024/04/17 02:32:13;;;;;;;6.65;4.68;;;6.70;99.90;;;;;;5444527;26;20006;-88
2024/04/17 02:34:39;;;;;;;6.50;4.18;;;6.70;99.90;;;;;;5436186;26;20456;-88
2024/04/17 02:37:04;;;;;;;6.47;4.28;;;6.70;99.90;;;;;;5448955;26;20010;-88
2024/04/17 02:39:30;;;;;;;6.60;4.30;;;6.60;99.90;;;;;;5447718;26;20350;-87
2024/04/17 02:41:55;;;;;;;8.45;4.88;;;6.60;99.90;;;;;;5447784;26;20461;-87
2024/04/17 02:44:21;;;;;;;7.30;4.40;;;6.60;99.90;;;;;;5447732;26;20006;-88
2024/04/17 02:46:47;;;;;;;8.05;3.85;;;6.60;99.90;;;;;;5411033;26;20010;-88
2024/04/17 02:49:13;;;;;;;7.22;4.15;;;6.70;99.90;;;;;;5443625;26;20014;-87
2024/04/17 02:51:38;;;;;;;8.48;5.00;;;6.70;99.90;;;;;;5446163;26;20452;-88
2024/04/17 02:54:04;;;;;;;7.38;4.57;;;6.70;99.90;;;;;;5446536;26;19999;-88
2024/04/17 02:56:30;;;;;;;6.35;4.13;;;6.70;99.90;;;;;;5448284;26;20472;-88
2024/04/17 02:58:55;;;;;;;10.50;3.95;;;6.80;99.90;;;;;;5412252;26;20004;-88
2024/04/17 03:01:21;;;;;;;9.70;5.90;;;6.80;99.90;;;;;;5450920;26;19999;-88
2024/04/17 03:03:46;;;;;;;7.95;4.82;;;6.70;99.90;;;;;;5451036;26;20414;-87
2024/04/17 03:06:12;;;;;;;9.10;4.88;;;6.70;99.90;;;;;;5455862;26;20074;-87
2024/04/17 03:08:38;;;;;;;7.38;4.93;;;6.60;99.90;;;;;;5473507;26;20006;-89
2024/04/17 03:11:04;;;;;;;8.55;4.93;;;6.60;99.90;;;;;;5466204;26;20006;-89
2024/04/17 03:13:29;;;;;;;6.85;4.65;;;6.50;99.90;;;;;;5383875;26;20011;-87
2024/04/17 03:16:01;;;;;;;9.65;5.22;;;6.60;99.90;;;;;;5450526;26;20017;-86
2024/04/17 03:18:26;;;;;;;8.20;5.90;;;6.50;99.90;;;;;;5471043;26;20041;-88
2024/04/17 03:20:52;;;;;;;8.27;4.93;;;6.60;99.90;;;;;;5468968;26;20002;-88
2024/04/17 03:23:17;;;;;;;8.43;4.15;;;6.60;99.90;;;;;;5457151;26;20006;-88
2024/04/17 03:25:52;;;;;;;8.65;5.15;;;6.60;99.90;;;;;;5461696;26;20003;-89
2024/04/17 03:28:18;;;;;;;6.70;4.05;;;6.70;99.90;;;;;;5467133;26;20052;-88
2024/04/17 03:30:43;;;;;;;8.02;5.60;;;6.60;99.90;;;;;;5466905;26;20349;-88
2024/04/17 03:33:09;;;;;;;7.05;4.93;;;6.70;99.90;;;;;;5473570;26;20001;-88
2024/04/17 03:35:34;;;;;;;5.90;4.03;;;6.70;99.90;;;;;;5450631;26;19994;-87
2024/04/17 03:38:00;;;;;;;6.32;3.90;;;6.70;99.90;;;;;;5427178;26;20072;-88
2024/04/17 03:40:25;;;;;;;4.93;3.38;;;6.70;99.90;;;;;;5455565;26;20013;-87
2024/04/17 03:42:51;;;;;;;6.55;3.75;;;6.60;99.90;;;;;;5452763;26;19999;-88
2024/04/17 03:45:17;;;;;;;6.25;4.13;;;6.60;99.90;;;;;;5452686;26;19998;-87
2024/04/17 03:47:42;;;;;;;6.93;4.50;;;6.60;99.90;;;;;;5451312;26;20003;-87
2024/04/17 03:50:08;;;;;;;6.55;3.70;;;6.60;99.90;;;;;;5426874;26;20359;-88
2024/04/17 03:52:33;;;;;;;6.28;4.25;;;6.70;99.90;;;;;;5441498;26;20010;-87
2024/04/17 03:54:59;;;;;;;5.68;3.55;;;6.60;99.90;;;;;;5449896;26;19991;-88
2024/04/17 03:57:27;;;;;;;5.60;4.20;;;6.60;99.90;;;;;;5451513;26;19991;-87
2024/04/17 03:59:53;;;;;;;5.63;3.67;;;6.60;99.90;;;;;;5445261;26;20015;-88
2024/04/17 04:02:19;;;;;;;6.18;4.15;;;6.50;99.90;;;;;;5442408;26;19999;-87
2024/04/17 04:04:45;;;;;;;6.15;4.05;;;6.70;99.90;;;;;;5443844;26;19995;-87
2024/04/17 04:07:10;;;;;;;6.03;3.45;;;6.60;99.90;;;;;;5443884;26;20395;-88
2024/04/17 04:09:36;;;;;;;6.03;3.40;;;6.60;99.90;;;;;;5440352;26;20096;-87
2024/04/17 04:12:02;;;;;;;5.03;3.50;;;6.60;99.90;;;;;;5449648;26;19999;-88
2024/04/17 04:14:28;;;;;;;5.50;3.95;;;6.60;99.90;;;;;;5449519;26;20742;-87
2024/04/17 04:16:53;;;;;;;6.45;3.28;;;6.60;99.90;;;;;;5437058;26;20019;-88
2024/04/17 04:19:22;;;;;;;4.80;3.53;;;6.50;99.90;;;;;;5450017;26;19991;-87
2024/04/17 04:21:48;;;;;;;4.40;2.10;;;6.40;99.90;;;;;;5442827;26;20010;-88
2024/04/17 04:24:14;;;;;;;4.00;2.35;;;6.40;99.90;;;;;;5443727;26;20441;-88
2024/04/17 04:26:39;;;;;;;2.72;2.08;;;6.30;99.90;;;;;;5441399;26;19995;-87
2024/04/17 04:29:05;;;;;;;3.40;2.13;;;6.30;99.90;;;;;;5449546;26;20010;-88
2024/04/17 04:31:31;;;;;;;3.35;2.22;;;6.30;99.90;;;;;;5447117;26;19991;-89
2024/04/17 04:33:56;;;;;;;4.60;2.92;;;6.30;99.90;;;;;;5418693;26;20017;-88
2024/04/17 04:36:22;;;;;;;4.30;3.50;;;6.20;99.90;;;;;;5434391;26;20071;-87
2024/04/17 04:38:48;;;;;;;3.38;2.40;;;6.30;99.90;;;;;;5447928;26;19991;-88
2024/04/17 04:41:13;;;;;;;2.88;2.05;;;6.20;99.90;;;;;;5448060;26;20071;-88
2024/04/17 04:43:39;;;;;;;2.70;1.77;;;6.30;99.90;;;;;;5435410;26;20004;-88
2024/04/17 04:46:04;;;;;;;3.15;2.15;;;6.30;99.90;;;;;;5448700;26;20037;-88
2024/04/17 04:48:30;;;;;;;2.45;1.98;;;6.30;99.90;;;;;;5452213;26;20507;-88
2024/04/17 04:50:55;;;;;;;4.32;2.33;;;6.20;99.90;;;;;;5436387;26;20535;-88
2024/04/17 04:53:21;;;;;;;3.13;2.58;;;6.20;99.90;;;;;;5449573;26;20034;-88
2024/04/17 04:56:02;;;;;;;2.83;2.47;;;6.10;99.90;;;;;;5448850;26;19995;-88
2024/04/17 04:58:28;;;;;;;2.65;2.10;;;6.10;99.90;;;;;;5421780;26;21005;-88
2024/04/17 05:00:54;;;;;;;2.47;1.80;;;6.10;99.90;;;;;;5418704;26;19996;-88
2024/04/17 05:03:20;;;;;;;5.38;2.15;;;6.10;99.90;;;;;;5448370;26;20535;-88
2024/04/17 05:05:46;;;;;;;2.33;2.10;;;6.20;99.90;;;;;;5463016;26;20026;-87
2024/04/17 05:08:11;;;;;;;3.15;2.03;;;6.10;99.90;;;;;;5433511;26;19996;-88
2024/04/17 05:10:37;;;;;;;3.63;2.42;;;6.10;99.90;;;;;;5452444;26;19998;-88
2024/04/17 05:13:03;;;;;;;2.80;1.92;;;6.00;99.90;;;;;;5456565;26;20003;-88
2024/04/17 05:15:29;;;;;;;2.58;1.83;;;6.00;99.90;;;;;;5433436;26;20478;-88
2024/04/17 05:17:55;;;;;;;2.22;1.60;;;6.00;99.90;;;;;;5405047;26;20000;-88
2024/04/17 05:20:22;;;;;;;5.10;2.40;;;6.10;99.90;;;;;;5427620;26;20057;-87
2024/04/17 05:22:50;;;;;;;2.53;1.65;;;6.10;99.90;;;;;;5429435;26;20009;-88
2024/04/17 05:25:16;;;;;;;10.88;9.23;;;6.10;99.90;;;;;;5428697;26;20000;-88
2024/04/17 05:27:42;;;;;;;3.95;2.47;;;6.10;99.90;;;;;;5433542;26;20680;-88
2024/04/17 05:30:11;;;;;;;6.88;3.88;;;6.10;99.90;;;;;;5434748;26;20022;-89
2024/04/17 05:32:36;;;;;;;3.45;2.47;;;6.10;99.90;;;;;;5432706;26;20043;-88
2024/04/17 05:35:02;;;;;;;3.50;3.00;;;6.10;99.90;;;;;;5398403;26;20073;-88
2024/04/17 05:37:28;;;;;;;6.72;6.10;;;6.10;99.90;;;;;;5427239;26;20000;-87
2024/04/17 05:39:53;;;;;;;7.97;7.30;;;6.10;99.90;;;;;;5438049;26;20445;-88
2024/04/17 05:42:20;;;;;;;2.92;2.58;;;6.10;99.90;;;;;;5434349;26;20076;-88
2024/04/17 05:44:45;;;;;;;2.70;2.00;;;6.10;99.90;;;;;;5432040;26;20634;-88
2024/04/17 05:47:11;;;;;;;2.90;1.98;;;6.20;99.90;;;;;;5432932;26;20030;-88
2024/04/17 05:49:36;;;;;;;2.85;2.40;;;6.20;99.90;;;;;;5428802;26;20045;-88
2024/04/17 05:52:02;;;;;;;3.28;2.45;;;6.30;99.90;;;;;;5436166;26;19999;-88
2024/04/17 05:54:28;;;;;;;20.52;18.63;;;6.20;99.90;;;;;;5444722;26;20430;-88
2024/04/17 05:56:54;;;;;;;12.40;8.52;;;6.20;99.90;;;;;;5436914;26;19991;-87
2024/04/17 05:59:19;;;;;;;3.47;2.67;;;6.20;99.90;;;;;;5454226;26;19990;-86
2024/04/17 06:01:45;;;;;;;3.17;2.55;;;6.20;99.90;;;;;;5451757;26;19991;-87
2024/04/17 06:04:11;;;;;;;5.25;4.03;;;6.20;99.90;;;;;;5469510;26;20006;-87
2024/04/17 06:06:36;;;;;;;16.55;6.05;;;6.30;99.90;;;;;;5475894;26;20021;-86
2024/04/17 06:09:02;;;;;;;11.80;10.48;;;6.30;99.90;;;;;;5454012;26;20052;-87
2024/04/17 06:11:27;;;;;;;4.60;2.90;;;6.30;99.90;;;;;;5451430;26;20027;-88
2024/04/17 06:13:53;;;;;;;4.82;2.72;;;6.30;99.90;;;;;;5431625;26;20003;-88
2024/04/17 06:16:19;;;;;;;3.92;2.50;;;6.30;99.90;;;;;;5431268;26;19999;-87
2024/04/17 06:18:44;;;;;;;3.22;2.97;;;6.40;99.90;;;;;;5424684;26;20480;-88
2024/04/17 06:21:10;;;;;;;3.17;2.83;;;6.40;99.90;;;;;;5425248;26;20963;-87
2024/04/17 06:23:35;;;;;;;2.28;1.80;;;6.50;99.90;;;;;;5422074;26;20047;-87
2024/04/17 06:26:01;;;;;;;4.47;3.17;;;6.40;99.90;;;;;;5424580;26;20010;-88
2024/04/17 06:28:27;;;;;;;2.85;1.48;;;6.50;99.90;;;;;;5425134;26;20007;-87
2024/04/17 06:30:52;;;;;;;8.77;7.97;;;6.60;99.90;;;;;;5418731;26;20015;-88
2024/04/17 06:33:18;;;;;;;10.40;8.80;;;6.50;99.90;;;;;;5427552;26;19999;-88
2024/04/17 06:35:43;;;;;;;3.40;2.47;;;6.60;99.90;;;;;;5413918;26;20340;-88
2024/04/17 06:38:09;;;;;;;3.40;1.60;;;6.60;99.90;;;;;;5435113;26;19999;-87
2024/04/17 06:40:35;;;;;;;3.70;1.95;;;6.50;99.90;;;;;;5430032;26;19999;-88
2024/04/17 06:43:00;;;;;;;4.15;3.72;;;6.50;99.90;;;;;;5436871;26;19995;-88
2024/04/17 06:45:26;;;;;;;3.00;2.30;;;6.50;99.90;;;;;;5447383;26;20010;-88
2024/04/17 06:47:53;;;;;;;4.60;2.40;;;6.50;99.90;;;;;;5447971;26;19999;-88
2024/04/17 06:50:18;;;;;;;4.75;2.83;;;6.50;99.90;;;;;;5446910;26;20460;-88
2024/04/17 06:52:44;;;;;;;4.65;3.35;;;6.60;99.90;;;;;;5450554;26;20067;-88
2024/04/17 06:55:10;;;;;;;8.02;4.10;;;6.70;99.90;;;;;;5448825;26;20027;-88
2024/04/17 06:57:35;;;;;;;4.88;4.05;;;6.70;99.90;;;;;;5411961;26;20345;-88
2024/04/17 07:00:01;;;;;;;4.20;3.05;;;6.70;99.90;;;;;;5394940;26;20037;-88
2024/04/17 07:02:26;;;;;;;8.30;5.18;;;6.70;99.90;;;;;;5446401;26;20088;-88
2024/04/17 07:04:52;;;;;;;8.30;6.18;;;6.70;99.90;;;;;;5431969;26;20004;-88
2024/04/17 07:07:17;;;;;;;4.43;3.20;;;6.70;99.90;;;;;;5426866;26;20453;-88
2024/04/17 07:09:43;;;;;;;5.13;2.92;;;6.80;99.90;;;;;;5407755;26;19991;-88
2024/04/17 07:12:09;;;;;;;4.30;3.15;;;6.90;99.90;;;;;;5427920;26;20021;-89
2024/04/17 07:14:35;;;;;;;5.70;3.50;;;6.90;99.90;;;;;;5444887;26;19994;-88
2024/04/17 07:17:01;;;;;;;4.90;2.83;;;6.90;99.90;;;;;;5448347;26;20063;-88
2024/04/17 07:19:26;;;;;;;7.78;4.10;;;6.90;99.90;;;;;;5437286;26;20010;-87
2024/04/17 07:21:53;;;;;;;4.78;2.83;;;6.90;99.90;;;;;;5437115;26;20009;-88
2024/04/17 07:24:18;;;;;;;7.13;3.55;;;7.00;99.90;;;;;;5439127;26;20027;-88
2024/04/17 07:26:44;;;;;;;6.72;3.92;;;7.10;99.90;;;;;;5441856;26;19995;-88
2024/04/17 07:29:10;;;;;;;6.88;4.43;;;7.10;99.90;;;;;;5406897;26;20075;-87
2024/04/17 07:31:36;;;;;;;25.48;13.68;;;7.00;99.90;;;;;;5444891;26;20002;-89
2024/04/17 07:34:01;;;;;;;26.65;18.08;;;7.10;99.90;;;;;;5443972;26;20003;-88
2024/04/17 07:36:27;;;;;;;6.65;4.30;;;7.10;99.90;;;;;;5434511;26;20028;-88
2024/04/17 07:38:52;;;;;;;6.07;3.83;;;7.20;99.90;;;;;;5434999;26;19991;-88
2024/04/17 07:41:18;;;;;;;36.83;20.15;;;7.30;99.90;;;;;;5442262;26;20044;-87
2024/04/17 07:43:44;;;;;;;8.93;5.40;;;7.30;99.90;;;;;;5442270;26;20009;-88
2024/04/17 07:46:09;;;;;;;11.48;6.65;;;7.50;99.90;;;;;;5413317;26;20002;-89
2024/04/17 07:48:35;;;;;;;10.93;7.63;;;7.50;99.90;;;;;;5434965;26;19991;-88
2024/04/17 07:51:02;;;;;;;8.65;6.63;;;7.60;99.90;;;;;;5446714;26;20370;-87
2024/04/17 07:53:28;;;;;;;11.25;6.30;;;7.50;99.90;;;;;;5449697;26;20010;-87
2024/04/17 07:55:53;;;;;;;10.98;7.40;;;7.50;99.90;;;;;;5451350;26;19999;-88
2024/04/17 07:58:19;;;;;;;8.77;4.32;;;7.50;99.90;;;;;;5431074;26;20124;-88
2024/04/17 08:00:45;;;;;;;13.25;7.85;;;7.50;99.90;;;;;;5436425;26;19995;-88
2024/04/17 08:03:11;;;;;;;7.75;5.13;;;7.40;99.90;;;;;;5432425;26;20079;-88
2024/04/17 08:05:37;;;;;;;10.10;5.63;;;7.40;99.90;;;;;;5432332;26;19995;-88
2024/04/17 08:08:03;;;;;;;16.15;12.90;;;7.50;99.90;;;;;;5445610;26;20003;-88
2024/04/17 08:10:29;;;;;;;9.90;7.88;;;7.60;99.90;;;;;;5411080;26;19999;-88
2024/04/17 08:13:07;;;;;;;14.50;8.50;;;7.50;99.90;;;;;;5442881;26;20067;-88
2024/04/17 08:15:34;;;;;;;7.93;5.10;;;7.60;99.90;;;;;;5408685;26;20076;-88
2024/04/17 08:17:59;;;;;;;11.45;8.15;;;7.60;99.90;;;;;;5449380;26;19998;-89
2024/04/17 08:20:25;;;;;;;8.23;4.28;;;7.70;99.90;;;;;;5442059;26;20011;-87
2024/04/17 08:22:50;;;;;;;8.15;4.90;;;7.70;99.90;;;;;;5444646;26;20418;-87
2024/04/17 08:25:16;;;;;;;7.40;3.85;;;7.80;99.90;;;;;;5415945;26;19999;-88
2024/04/17 08:27:42;;;;;;;15.70;10.80;;;7.70;99.90;;;;;;5449660;26;20006;-87
2024/04/17 08:30:07;;;;;;;10.15;8.98;;;7.80;99.90;;;;;;5454034;26;19999;-89
2024/04/17 08:32:33;;;;;;;10.23;5.68;;;8.00;99.90;;;;;;5432308;26;20361;-88
2024/04/17 08:34:59;;;;;;;8.25;5.45;;;8.00;99.90;;;;;;5453778;26;19999;-88
2024/04/17 08:37:24;;;;;;;9.30;5.93;;;8.10;99.90;;;;;;5453707;26;20011;-89
2024/04/17 08:39:50;;;;;;;12.27;6.80;;;8.10;99.90;;;;;;5459293;26;20055;-89
2024/04/17 08:42:23;;;;;;;9.25;5.43;;;8.20;99.90;;;;;;5457573;26;19999;-89
2024/04/17 08:44:48;;;;;;;9.55;6.55;;;8.20;99.90;;;;;;5465811;26;19994;-89
2024/04/17 08:47:15;;;;;;;8.05;4.57;;;8.30;99.90;;;;;;5441258;26;20068;-89
2024/04/17 08:49:41;;;;;;;7.65;5.32;;;8.40;99.90;;;;;;5449264;26;20009;-89
2024/04/17 08:52:09;;;;;;;8.95;8.05;;;8.30;99.90;;;;;;5445756;26;19999;-88
2024/04/17 08:54:36;;;;;;;7.75;4.82;;;8.40;99.90;;;;;;5413575;26;20083;-90
2024/04/17 08:57:01;;;;;;;8.70;5.93;;;8.50;99.90;;;;;;5419520;26;20002;-89
2024/04/17 08:59:27;;;;;;;6.80;4.72;;;8.40;99.50;;;;;;5419946;26;19995;-91
2024/04/17 09:01:53;;;;;;;9.65;6.35;;;8.50;99.90;;;;;;5450997;26;19991;-89
2024/04/17 09:04:20;;;;;;;10.40;5.05;;;8.50;99.90;;;;;;5408884;26;20062;-90
2024/04/17 09:06:49;;;;;;;7.65;5.22;;;8.40;99.90;;;;;;5407797;26;20011;-90
2024/04/17 09:09:18;;;;;;;10.45;6.15;;;8.40;99.90;;;;;;5439132;26;19999;-89
2024/04/17 09:11:45;;;;;;;13.80;10.35;;;8.40;99.90;;;;;;5442674;26;20031;-89
2024/04/17 09:14:10;;;;;;;12.27;7.93;;;8.40;99.90;;;;;;5445593;26;20454;-89
2024/04/17 09:16:36;;;;;;;9.00;7.28;;;8.50;99.90;;;;;;5450697;26;20080;-90
2024/04/17 09:19:02;;;;;;;18.90;16.90;;;8.60;99.90;;;;;;5443612;26;19999;-89
2024/04/17 09:21:27;;;;;;;9.25;6.15;;;8.60;99.90;;;;;;5452919;26;20079;-90
2024/04/17 09:23:53;;;;;;;14.00;8.05;;;8.60;99.00;;;;;;5458557;26;20014;-88
2024/04/17 09:26:20;;;;;;;17.15;7.47;;;8.90;99.40;;;;;;5457267;26;20209;-88
2024/04/17 09:28:45;;;;;;;10.68;6.18;;;9.00;97.60;;;;;;5436932;26;20009;-88
2024/04/17 09:31:11;;;;;;;14.60;9.50;;;9.10;95.60;;;;;;5445351;26;19992;-90
2024/04/17 09:33:46;;;;;;;14.27;11.38;;;9.30;96.70;;;;;;5454526;26;19995;-88
2024/04/17 09:36:12;;;;;;;8.52;5.47;;;9.30;92.10;;;;;;5441769;26;19991;-89
2024/04/17 09:38:39;;;;;;;13.73;6.97;;;9.30;92.50;;;;;;5426863;26;20021;-89
2024/04/17 09:41:05;;;;;;;11.57;6.53;;;9.60;92.40;;;;;;5452394;26;20002;-89
2024/04/17 09:43:31;;;;;;;10.05;6.18;;;9.70;88.60;;;;;;5443808;26;19999;-90
2024/04/17 09:46:00;;;;;;;14.23;8.27;;;9.80;90.20;;;;;;5414255;26;19999;-89
2024/04/17 09:48:27;;;;;;;12.35;9.60;;;10.10;89.70;;;;;;5443616;26;19995;-89
2024/04/17 09:51:12;;;;;;;10.80;6.95;;;10.20;88.20;;;;;;5445692;26;20023;-90
2024/04/17 09:53:54;;;;;;;9.85;7.90;;;10.50;87.40;;;;;;5441665;26;20009;-89
2024/04/17 09:56:21;;;;;;;10.85;7.82;;;10.80;83.60;;;;;;5448139;26;19991;-90
2024/04/17 09:58:48;;;;;;;9.68;7.65;;;10.60;81.50;;;;;;5440951;26;20017;-89
2024/04/17 10:01:15;;;;;;;11.95;7.80;;;10.50;79.60;;;;;;5439371;26;20010;-89
2024/04/17 10:03:42;;;;;;;8.75;5.93;;;10.30;81.90;;;;;;5412873;26;20415;-90
2024/04/17 10:06:08;;;;;;;11.02;8.60;;;10.10;82.20;;;;;;5449395;26;19999;-89
2024/04/17 10:08:37;;;;;;;9.27;6.65;;;10.00;81.10;;;;;;5450143;26;20018;-90
2024/04/17 10:11:05;;;;;;;9.63;7.25;;;9.90;77.30;;;;;;5444158;26;20065;-90
2024/04/17 10:13:31;;;;;;;10.15;5.55;;;10.00;74.20;;;;;;5447439;26;20049;-88
2024/04/17 10:15:57;;;;;;;9.13;6.68;;;9.90;78.20;;;;;;5444735;26;20009;-89
2024/04/17 10:18:24;;;;;;;12.80;8.00;;;9.80;86.50;;;;;;5440801;26;20347;-90
2024/04/17 10:20:55;;;;;;;11.25;5.75;;;9.70;88.60;;;;;;5443930;26;20020;-89
2024/04/17 10:23:24;;;;;;;7.82;4.35;;;9.80;84.50;;;;;;5442784;26;20403;-91
2024/04/17 10:25:56;;;;;;;7.82;6.63;;;9.70;81.10;;;;;;5448599;26;20603;-88
2024/04/17 10:28:23;;;;;;;10.10;5.78;;;9.50;80.60;;;;;;5407576;26;20010;-90
2024/04/17 10:30:49;;;;;;;14.90;10.60;;;9.50;84.70;;;;;;5443429;26;20014;-89
2024/04/17 10:33:34;;;;;;;16.92;10.05;;;9.60;85.50;;;;;;5449563;26;19991;-89
2024/04/17 10:36:01;;;;;;;16.63;8.27;;;9.50;87.90;;;;;;5412978;26;20046;-89
2024/04/17 10:38:28;;;;;;;11.48;7.43;;;9.20;84.20;;;;;;5445756;26;19999;-87
2024/04/17 10:40:56;;;;;;;7.68;4.20;;;8.70;89.70;;;;;;5448462;26;19994;-89
2024/04/17 10:43:24;;;;;;;6.93;3.90;;;8.60;86.90;;;;;;5446175;26;20009;-88
2024/04/17 10:46:09;;;;;;;8.52;7.65;;;8.30;85.30;;;;;;5442675;26;20697;-89
2024/04/17 10:48:48;;;;;;;6.75;4.22;;;8.00;89.50;;;;;;5446791;26;20225;-88
2024/04/17 10:51:14;;;;;;;6.40;4.68;;;7.90;91.00;;;;;;5435438;26;20341;-89
2024/04/17 10:53:43;;;;;;;8.15;4.22;;;7.70;88.70;;;;;;5435180;26;20012;-87
2024/04/17 10:56:09;;;;;;;8.38;4.72;;;7.60;94.20;;;;;;5444884;26;19998;-88
2024/04/17 10:58:37;;;;;;;7.40;4.65;;;7.70;97.20;;;;;;5438081;26;20002;-88
2024/04/17 11:01:03;;;;;;;11.30;7.40;;;7.80;97.70;;;;;;5444350;26;20072;-87
2024/04/17 11:03:29;;;;;;;8.32;5.97;;;7.80;97.90;;;;;;5431260;26;20010;-87
2024/04/17 11:05:55;;;;;;;8.63;4.63;;;7.80;97.60;;;;;;5439962;26;20007;-88
2024/04/17 11:08:21;;;;;;;13.50;4.95;;;7.90;97.90;;;;;;5446943;26;20006;-87
2024/04/17 11:10:47;;;;;;;6.38;4.00;;;8.00;97.20;;;;;;5458617;26;19994;-89
2024/04/17 11:13:15;;;;;;;7.50;5.05;;;8.10;96.00;;;;;;5442548;26;20002;-87
2024/04/17 11:15:40;;;;;;;9.65;5.95;;;8.20;95.70;;;;;;5438026;26;20449;-87
2024/04/17 11:18:07;;;;;;;5.93;4.55;;;8.10;91.90;;;;;;5451024;26;19999;-87
2024/04/17 11:20:34;;;;;;;8.18;5.20;;;8.20;91.60;;;;;;5448280;26;20025;-86
2024/04/17 11:23:12;;;;;;;6.28;3.08;;;8.30;90.70;;;;;;5457394;26;20003;-88
2024/04/17 11:25:40;;;;;;;6.47;5.40;;;8.40;90.80;;;;;;5418452;26;19996;-82
2024/04/17 11:28:11;;;;;;;6.20;5.10;;;8.40;88.80;;;;;;5458443;26;19998;-83
2024/04/17 11:30:37;;;;;;;7.10;3.50;;;8.40;88.00;;;;;;5462046;26;20013;-82
2024/04/17 11:33:03;;;;;;;7.82;4.47;;;8.40;86.30;;;;;;5430578;26;20043;-88
2024/04/17 11:35:29;;;;;;;8.02;5.60;;;8.70;90.40;;;;;;5446763;26;19995;-87
2024/04/17 11:37:55;;;;;;;11.05;5.75;;;8.90;86.00;;;;;;5456248;26;20700;-89
2024/04/17 11:40:21;;;;;;;7.28;3.42;;;8.90;83.00;;;;;;5445231;26;20003;-88
2024/04/17 11:42:46;;;;;;;6.45;3.67;;;9.10;82.90;;;;;;5442912;26;19995;-88
2024/04/17 11:45:13;;;;;;;4.75;2.35;;;9.30;87.80;;;;;;5457503;26;20003;-89
2024/04/17 11:47:39;;;;;;;7.80;4.97;;;9.20;73.20;;;;;;5446416;26;19999;-87
2024/04/17 11:50:09;;;;;;;5.53;3.13;;;9.20;86.40;;;;;;5438729;26;20015;-88
2024/04/17 11:52:35;;;;;;;3.80;2.50;;;9.10;87.00;;;;;;5442676;26;20017;-88
2024/04/17 11:55:01;;;;;;;5.93;4.40;;;9.30;81.90;;;;;;5450889;26;19998;-89
2024/04/17 11:57:28;;;;;;;3.20;2.35;;;9.30;77.80;;;;;;5456226;26;20006;-88
2024/04/17 11:59:57;;;;;;;3.63;2.55;;;9.40;82.20;;;;;;5450491;26;20014;-90
2024/04/17 12:02:23;;;;;;;2.55;1.67;;;9.50;77.20;;;;;;5455446;26;19999;-88
2024/04/17 12:04:49;;;;;;;2.45;1.45;;;9.50;73.20;;;;;;5454244;26;20002;-89
2024/04/17 12:07:15;;;;;;;5.82;1.90;;;9.60;73.50;;;;;;5433734;26;20002;-90
2024/04/17 12:09:47;;;;;;;4.45;2.50;;;10.00;77.10;;;;;;5449270;26;19995;-89
2024/04/17 12:12:13;;;;;;;3.20;1.92;;;10.30;70.20;;;;;;5458104;26;19995;-90
2024/04/17 12:14:39;;;;;;;3.95;3.67;;;10.50;62.40;;;;;;5466867;26;20007;-89
2024/04/17 12:17:05;;;;;;;3.90;3.60;;;10.80;65.60;;;;;;5470050;26;20068;-89
2024/04/17 12:19:30;;;;;;;4.03;3.70;;;11.00;65.50;;;;;;5435280;26;20006;-89
2024/04/17 12:21:56;;;;;;;3.42;3.13;;;11.20;59.90;;;;;;5459940;26;19987;-88
2024/04/17 12:26:49;;;;;;;3.47;3.20;;;11.40;58.80;;;;;;5470733;26;20057;-89
2024/04/17 12:27:08;;;;;;;3.78;3.50;;;11.50;52.20;;;;;;5474223;26;19991;-90
2024/04/17 12:29:33;;;;;;;3.08;2.88;;;11.70;55.30;;;;;;5432041;26;20009;-90
2024/04/17 12:31:59;;;;;;;4.20;2.63;;;12.10;58.50;;;;;;5472260;26;19995;-91
2024/04/17 12:34:25;;;;;;;4.47;2.22;;;11.90;51.50;;;;;;5432419;26;20065;-90
2024/04/17 12:36:51;;;;;;;4.60;3.03;;;12.00;52.80;;;;;;5461624;26;19996;-89
2024/04/17 12:39:16;;;;;;;3.05;2.78;;;12.00;56.00;;;;;;5445438;26;19988;-90
2024/04/17 12:41:42;;;;;;;5.90;4.35;;;11.90;56.00;;;;;;5471260;26;19998;-88
2024/04/17 12:44:07;;;;;;;4.57;3.60;;;11.70;51.60;;;;;;5469979;26;19995;-89
2024/04/17 12:46:33;;;;;;;5.03;3.28;;;11.80;59.50;;;;;;5468487;26;20027;-89
2024/04/17 12:48:59;;;;;;;3.08;2.22;;;11.90;61.60;;;;;;5453826;26;20460;-90
2024/04/17 12:51:24;;;;;;;4.32;3.92;;;12.00;62.00;;;;;;5447034;26;19995;-89